메인 페이지
METAR-TAF:

METAR-TAF

공항 :

소피아, 불가리아

위도: 42-39N, 경도: 023-23E, 고도: 586m

현재 날씨관측

예보는 19분 전, 02:00시(UTC)에 발표되었습니다.
무풍
온도 14°C
습도 88%
기압 1017 hPa
시정: 9000m

METAR: LBSF 210200Z 00000KT 9000 NSC 14/12 Q1017 NOSIG

시각: 05:19 (02:19 UTC)

예보

예보는 3 시간 19분 전, 23:00시(UTC)에 발표되었습니다.
예보 대상 시간: 21일 00시부터 21일 24시까지 (UTC)
여러 방향의 바람 4kt
시정 10km 이상
1500m 미만 상공 구름 및 적란운 없음
일시적
21일 02시부터 21일 05시까지 (UTC)
시정: 5000m
고도 3000ft 상공 구름 보통
박무
전환 중
21일 08시부터 21일 10시까지 (UTC)
10kt
고도 5000ft 상공 구름 보통
확률 30% :
일시적
21일 11시부터 21일 15시까지 (UTC)
시정: 5000m
고도 3000ft 상공 구름 조금, 적란운.
고도 5000ft 상공 구름 많음
뇌우, 비
전환 중
21일 18시부터 21일 20시까지 (UTC)
여러 방향의 바람 4kt

TAF: LBSF 202300Z 2100/2124 VRB04KT CAVOK TEMPO 2102/2105 5000 BR SCT030 BECMG 2108/2110 08010KT SCT050 PROB30 TEMPO 2111/2115 5000 TSRA FEW030CB BKN050 BECMG 2118/2120 VRB04KT

4,000개 이상의 공항 관측 자료 및 예보 (METAR 및 TAF 보고).

지도상에서 검색 가능한 기상관측소가 노란 점과 빨간 점으로 표시되어 있습니다.

기상관측소 명을 보려면 표시 위로 마우스를 이동하세요.

날씨 관측과 예보를 보려면 클릭하세요.

지도 변경 : 확대하려면 엑스 표시가 있는 녹색 버튼, 축소하려면 빼기 표시가 있는 녹색 버튼, 다음 페이지의 지도를 보려면 녹색 화살표를 클릭하세요.


METAR-TAF: